WIPP

Sultan Mahmud Badaruddin II Airport

Palembang-Sumatra Island, Indonesia
TAF WIPP 230500Z 2306/2406 18006KT 9999 SCT012 TEMPO 2308/2312 VRB08KT 5000 RA BKN012 FEW015CB TEMPO 2321/2324 24003KT 3000 BR FEW012
Issued Valid From Valid To
Apr-23 @ 05:00 UTC
(4 hours ago)
Apr-23 @ 06:00 UTC
(3 hours ago)
Apr-24 @ 06:00 UTC
(in 21 hours)
Apr-23 @ 06:00 to Apr-24 @ 06:00
TAF WIPP 230500Z 2306/2406 18006KT 9999 SCT012
Wind Visibility Clouds
180° at 6 knots 10,000+ meters
  • Scattered at 1,200' AGL
Temporary Apr-23 @ 08:00 to Apr-23 @ 12:00
TEMPO 2308/2312 VRB08KT 5000 RA BKN012 FEW015CB
Wind Visibility Clouds Conditions
Variable at 8 knots 5,005 meters
  • Broken at 1,200' AGL
  • Few at 1,500' AGL
  • Rain
Temporary Apr-23 @ 21:00 to Apr-24 @ 00:00
TEMPO 2321/2324 24003KT 3000 BR FEW012
Wind Visibility Clouds Conditions
240° at 3 knots 2,993 meters
  • Few at 1,200' AGL
  • Mist
TAF WIPP 230500Z 2306/2406 18006KT 9999 SCT012 TEMPO 2308/2312 VRB08KT 5000 RA BKN012 FEW015CB TEMPO 2321/2324 24003KT 3000 BR FEW012
Issued Apr-23 @ 05:00 UTC
(4 hours ago)
Valid From Apr-23 @ 06:00 UTC
(3 hours ago)
Valid To Apr-24 @ 06:00 UTC
(in 21 hours)
Apr-23 @ 06:00 - Apr-24 @ 06:00
Wind Visibility
180° at 6 knots 10,000+ meters
Clouds
  • Scattered at 1,200' AGL
Temporary Apr-23 @ 08:00 - Apr-23 @ 12:00
Wind Visibility
Variable at 8 knots 5,005 meters
Clouds
  • Broken at 1,200' AGL
  • Few at 1,500' AGL
Conditions
  • Rain
Temporary Apr-23 @ 21:00 - Apr-24 @ 00:00
Wind Visibility
240° at 3 knots 2,993 meters
Clouds
  • Few at 1,200' AGL
Conditions
  • Mist